Time;durP1;ratioP1;P1;durP2;ratioP2;P2;SDS_P1;SDS_P2;PMS_P1;PMS_P2;Temp;Humidity;BMP_temperature;BMP_pressure;BME280_temperature;BME280_humidity;BME280_pressure;Samples;Min_cycle;Max_cycle;Signal;HPM_P1;HPM_P2
2022/06/23 00:02:40;;;;;;;2.80;1.63;;;20.70;75.90;;;;;;10504910;28;20054;-56
2022/06/23 00:07:44;;;;;;;2.38;1.58;;;20.70;76.00;;;;;;10501609;28;20030;-55
2022/06/23 00:12:45;;;;;;;1.90;1.50;;;20.60;76.00;;;;;;10510781;28;20392;-58
2022/06/23 00:17:53;;;;;;;1.67;1.35;;;20.60;76.10;;;;;;10506825;28;20056;-56
2022/06/23 00:23:05;;;;;;;;;;;20.60;76.10;;;;;;10510301;28;20697;-57
2022/06/23 00:28:11;;;;;;;5.18;1.70;;;20.50;76.10;;;;;;10508126;28;19912;-58
2022/06/23 00:33:21;;;;;;;2.60;1.70;;;20.50;76.10;;;;;;10505455;28;20107;-59
2022/06/23 00:38:30;;;;;;;4.18;1.42;;;20.50;76.10;;;;;;10506763;28;20653;-57
2022/06/23 00:43:31;;;;;;;2.83;1.30;;;20.40;76.20;;;;;;10505058;28;20085;-58
2022/06/23 00:48:35;;;;;;;1.77;1.23;;;20.40;76.20;;;;;;10506776;28;20016;-56
2022/06/23 00:53:53;;;;;;;1.65;1.33;;;20.40;76.30;;;;;;10510647;28;20028;-56
2022/06/23 00:59:00;;;;;;;2.53;1.55;;;20.30;76.20;;;;;;10498930;28;20066;-57
2022/06/23 01:04:07;;;;;;;2.45;1.50;;;20.30;76.30;;;;;;10505896;28;20099;-57
2022/06/23 01:09:16;;;;;;;1.60;1.50;;;20.30;76.40;;;;;;10504700;28;20031;-58
2022/06/23 01:14:34;;;;;;;2.30;1.50;;;20.20;76.40;;;;;;10508773;28;20553;-57
2022/06/23 01:20:00;;;;;;;1.55;1.40;;;20.20;76.40;;;;;;10507140;28;20038;-56
2022/06/23 01:25:38;;;;;;;2.45;1.60;;;20.20;76.40;;;;;;10507132;28;20217;-58
2022/06/23 01:30:44;;;;;;;;;;;20.10;76.40;;;;;;10506179;28;20489;-56
2022/06/23 01:36:03;;;;;;;1.35;1.20;;;20.10;76.50;;;;;;10508545;28;19960;-58
2022/06/23 01:41:29;;;;;;;1.48;1.38;;;20.10;76.50;;;;;;10502651;28;20036;-57
2022/06/23 01:46:36;;;;;;;3.00;1.52;;;20.00;76.50;;;;;;10506997;28;20107;-58
2022/06/23 01:51:52;;;;;;;2.08;1.45;;;20.00;76.50;;;;;;10496348;28;20494;-57
2022/06/23 01:57:08;;;;;;;2.72;1.80;;;20.00;76.70;;;;;;10501257;28;20400;-58
2022/06/23 02:02:11;;;;;;;1.77;1.52;;;19.90;76.60;;;;;;10499171;28;20077;-58
2022/06/23 02:07:19;;;;;;;2.45;1.60;;;19.90;76.70;;;;;;10500796;28;20028;-57
2022/06/23 02:12:42;;;;;;;1.92;1.67;;;19.90;76.80;;;;;;10508829;28;20046;-56
2022/06/23 02:18:13;;;;;;;2.08;1.50;;;19.80;76.80;;;;;;10509398;28;20060;-56
2022/06/23 02:23:28;;;;;;;2.30;1.70;;;19.80;76.80;;;;;;10516798;28;20040;-58
2022/06/23 02:28:38;;;;;;;3.78;1.80;;;19.80;76.80;;;;;;10509417;28;20365;-58
2022/06/23 02:33:49;;;;;;;2.88;1.45;;;19.80;76.90;;;;;;10518702;28;20032;-56
2022/06/23 02:38:57;;;;;;;1.92;1.50;;;19.70;76.90;;;;;;10508512;28;20052;-58
2022/06/23 02:44:21;;;;;;;1.60;1.33;;;19.70;77.50;;;;;;10515355;28;20035;-59
2022/06/23 02:50:08;;;;;;;2.28;1.63;;;19.70;77.00;;;;;;10517050;28;20089;-59
2022/06/23 02:55:15;;;;;;;2.58;1.90;;;19.60;77.00;;;;;;10476952;28;20060;-58
2022/06/23 03:00:40;;;;;;;3.28;1.60;;;19.60;77.00;;;;;;10511520;28;20115;-56
2022/06/23 03:05:54;;;;;;;2.45;1.38;;;19.60;77.00;;;;;;10513964;28;20480;-57
2022/06/23 03:10:59;;;;;;;2.50;1.73;;;19.50;77.00;;;;;;10505993;28;20036;-55
2022/06/23 03:16:12;;;;;;;2.05;1.75;;;19.50;77.00;;;;;;10510402;28;20043;-59
2022/06/23 03:21:23;;;;;;;2.20;1.70;;;19.50;77.10;;;;;;10510046;28;20036;-56
2022/06/23 03:26:38;;;;;;;2.47;1.42;;;19.50;77.10;;;;;;10508104;28;20054;-56
2022/06/23 03:31:47;;;;;;;3.55;2.53;;;19.40;77.10;;;;;;10519426;28;20046;-56
2022/06/23 03:36:57;;;;;;;4.03;1.50;;;19.40;77.10;;;;;;10507613;28;20030;-57
2022/06/23 03:42:14;;;;;;;3.13;1.77;;;19.50;77.20;;;;;;10430879;28;20452;-56
2022/06/23 03:47:20;;;;;;;1.80;1.50;;;19.40;77.20;;;;;;10406298;28;20482;-57
2022/06/23 03:52:32;;;;;;;2.83;1.50;;;19.30;77.10;;;;;;10415683;28;20034;-56
2022/06/23 03:57:37;;;;;;;3.28;1.67;;;19.30;77.20;;;;;;10412692;28;20461;-57
2022/06/23 04:02:42;;;;;;;2.90;1.80;;;19.30;77.20;;;;;;10413056;28;20036;-56
2022/06/23 04:07:49;;;;;;;2.75;1.77;;;19.30;77.20;;;;;;10398686;28;20047;-56
2022/06/23 04:12:54;;;;;;;2.80;1.80;;;19.30;77.20;;;;;;10410039;28;20027;-57
2022/06/23 04:18:04;;;;;;;2.47;1.70;;;19.20;77.20;;;;;;10407428;28;20048;-56
2022/06/23 04:23:22;;;;;;;2.40;1.70;;;19.20;77.20;;;;;;10407180;28;20150;-56
2022/06/23 04:28:47;;;;;;;2.28;1.63;;;19.20;77.20;;;;;;10402499;28;20055;-56
2022/06/23 04:33:48;;;;;;;3.95;2.55;;;19.20;77.30;;;;;;10404141;28;20684;-56
2022/06/23 04:39:26;;;;;;;2.63;1.58;;;19.10;77.20;;;;;;10403671;28;20406;-58
2022/06/23 04:44:29;;;;;;;;;;;19.20;77.40;;;;;;10406594;28;20054;-57
2022/06/23 04:49:45;;;;;;;2.17;1.50;;;19.10;77.50;;;;;;10405492;28;20373;-59
2022/06/23 04:55:00;;;;;;;1.90;1.35;;;19.10;77.20;;;;;;10407306;28;20039;-58
2022/06/23 05:00:04;;;;;;;2.92;1.90;;;19.10;77.30;;;;;;10413150;28;20021;-58
2022/06/23 05:05:18;;;;;;;2.22;1.60;;;19.10;77.30;;;;;;10404841;28;20518;-56
2022/06/23 05:10:31;;;;;;;3.60;1.70;;;19.10;77.50;;;;;;10400889;28;20177;-58
2022/06/23 05:15:36;;;;;;;3.15;2.05;;;19.10;78.40;;;;;;10408074;28;20081;-57
2022/06/23 05:20:46;;;;;;;2.75;1.80;;;19.20;77.60;;;;;;10404783;28;20870;-57
2022/06/23 05:25:50;;;;;;;3.22;1.75;;;19.20;77.50;;;;;;10405205;28;20328;-57
2022/06/23 05:30:53;;;;;;;3.00;1.92;;;19.10;77.50;;;;;;10406339;28;20532;-57
2022/06/23 05:36:03;;;;;;;2.10;1.40;;;19.10;77.50;;;;;;10409105;28;20544;-58
2022/06/23 05:41:17;;;;;;;2.55;1.58;;;19.10;77.60;;;;;;10397948;28;20480;-57
2022/06/23 05:46:21;;;;;;;3.22;1.92;;;19.10;77.60;;;;;;10408124;28;20516;-57
2022/06/23 05:51:40;;;;;;;5.03;2.17;;;19.10;77.60;;;;;;10408935;28;20024;-57
2022/06/23 05:56:47;;;;;;;2.55;1.80;;;19.10;77.90;;;;;;10409703;28;20059;-56
2022/06/23 06:02:12;;;;;;;3.35;1.80;;;19.20;77.80;;;;;;10405355;28;20076;-56
2022/06/23 06:07:17;;;;;;;3.83;1.90;;;19.20;77.90;;;;;;10407721;28;20587;-57
2022/06/23 06:12:22;;;;;;;2.97;2.08;;;19.20;77.70;;;;;;10409718;28;20132;-57
2022/06/23 06:17:25;;;;;;;2.30;1.85;;;19.20;77.70;;;;;;10418518;28;20156;-57
2022/06/23 06:22:51;;;;;;;2.53;1.90;;;19.20;77.70;;;;;;10410002;28;20224;-57
2022/06/23 06:27:55;;;;;;;2.78;2.10;;;19.20;77.70;;;;;;10410994;28;20185;-56
2022/06/23 06:32:57;;;;;;;3.15;2.10;;;19.20;77.70;;;;;;10413767;28;20020;-57
2022/06/23 06:38:17;;;;;;;2.38;1.83;;;19.20;77.60;;;;;;10417876;28;20024;-56
2022/06/23 06:43:29;;;;;;;2.10;1.80;;;19.20;77.80;;;;;;10411233;28;20431;-57
2022/06/23 06:48:36;;;;;;;2.72;2.45;;;19.20;77.70;;;;;;10419090;28;20110;-56
2022/06/23 06:53:43;;;;;;;3.05;2.10;;;19.20;77.50;;;;;;10414556;28;20582;-57
2022/06/23 06:58:55;;;;;;;2.28;1.88;;;19.30;77.60;;;;;;10414579;28;20484;-57
2022/06/23 07:03:56;;;;;;;3.58;2.13;;;19.30;77.60;;;;;;10420727;28;20983;-56
2022/06/23 07:09:07;;;;;;;3.38;2.08;;;19.30;77.50;;;;;;10422751;28;20020;-57
2022/06/23 07:14:25;;;;;;;2.80;2.15;;;19.30;77.50;;;;;;10418494;28;20032;-61
2022/06/23 07:19:36;;;;;;;4.25;2.17;;;19.40;78.30;;;;;;10420150;28;20134;-57
2022/06/23 07:25:00;;;;;;;4.13;2.40;;;19.40;78.00;;;;;;10404886;28;20040;-56
2022/06/23 07:30:40;;;;;;;4.63;2.63;;;19.50;78.20;;;;;;10409764;28;20585;-56
2022/06/23 07:35:57;;;;;;;3.63;2.17;;;19.50;78.10;;;;;;10412121;28;20332;-57
2022/06/23 07:41:02;;;;;;;3.40;2.33;;;19.50;78.20;;;;;;10409676;28;20028;-57
2022/06/23 07:46:03;;;;;;;4.72;2.30;;;19.50;77.90;;;;;;10412362;28;20130;-58
2022/06/23 07:51:07;;;;;;;3.53;2.28;;;19.60;78.00;;;;;;10403417;28;20542;-56
2022/06/23 07:56:12;;;;;;;3.30;2.38;;;19.60;78.00;;;;;;10405094;28;20205;-56
2022/06/23 08:01:33;;;;;;;3.28;2.25;;;19.70;78.10;;;;;;10422200;28;20762;-58
2022/06/23 08:06:35;;;;;;;2.95;2.33;;;19.70;78.30;;;;;;10417680;28;20545;-57
2022/06/23 08:16:58;;;;;;;4.00;2.40;;;19.80;78.10;;;;;;10408909;28;20090;-57
2022/06/23 08:22:13;;;;;;;3.38;2.42;;;19.90;78.10;;;;;;10411402;28;20579;-56
2022/06/23 08:27:18;;;;;;;5.00;2.42;;;19.90;78.40;;;;;;10402216;28;20047;-57
2022/06/23 08:32:20;;;;;;;3.20;2.50;;;20.00;78.20;;;;;;10401348;28;20037;-58
2022/06/23 08:37:23;;;;;;;3.42;2.50;;;20.00;78.30;;;;;;10411599;28;20568;-56
2022/06/23 08:42:28;;;;;;;4.70;2.70;;;20.10;78.30;;;;;;10401019;28;20590;-56
2022/06/23 08:47:47;;;;;;;4.07;2.88;;;20.20;78.90;;;;;;10400171;28;20815;-58
2022/06/23 08:52:53;;;;;;;3.67;2.67;;;20.20;78.50;;;;;;10419282;28;20043;-56
2022/06/23 08:58:01;;;;;;;4.00;3.03;;;20.30;78.20;;;;;;10409392;28;20894;-56
2022/06/23 09:03:06;;;;;;;6.53;2.63;;;20.40;78.30;;;;;;10401193;28;20036;-57
2022/06/23 09:08:45;;;;;;;3.55;2.83;;;20.40;78.40;;;;;;10407725;28;20028;-57
2022/06/23 09:14:08;;;;;;;;;;;20.50;78.70;;;;;;10407717;28;20135;-57
2022/06/23 09:19:27;;;;;;;3.13;2.55;;;20.50;78.90;;;;;;10405097;28;19924;-57
2022/06/23 09:24:37;;;;;;;3.33;2.80;;;20.60;78.60;;;;;;10400526;28;20346;-57
2022/06/23 09:29:52;;;;;;;4.10;2.92;;;20.70;78.30;;;;;;10406936;28;20027;-58
2022/06/23 09:35:11;;;;;;;3.53;3.00;;;20.80;78.50;;;;;;10418476;28;20035;-57
2022/06/23 09:40:44;;;;;;;8.65;3.33;;;20.80;78.50;;;;;;10421335;28;20386;-58
2022/06/23 09:46:14;;;;;;;4.82;2.83;;;20.90;78.50;;;;;;10409737;28;20490;-56
2022/06/23 09:51:27;;;;;;;4.38;3.20;;;21.00;78.60;;;;;;10420555;28;20038;-55
2022/06/23 09:56:46;;;;;;;3.75;3.15;;;21.00;78.50;;;;;;10423376;28;20032;-56
2022/06/23 10:02:22;;;;;;;3.58;3.20;;;21.10;78.40;;;;;;10423927;28;20043;-56
2022/06/23 10:07:29;;;;;;;4.53;3.47;;;21.20;78.20;;;;;;10358483;28;20032;-56
2022/06/23 10:12:37;;;;;;;4.57;3.53;;;21.30;78.20;;;;;;10420751;28;20020;-57
2022/06/23 10:17:58;;;;;;;5.15;3.22;;;21.40;78.30;;;;;;10412219;28;20901;-57
2022/06/23 10:23:07;;;;;;;5.03;3.40;;;21.40;78.20;;;;;;10415216;28;20044;-56
2022/06/23 10:28:26;;;;;;;5.18;3.28;;;21.50;78.20;;;;;;10412081;28;20033;-56
2022/06/23 10:33:54;;;;;;;6.70;3.50;;;21.50;78.30;;;;;;10409962;28;20846;-57
2022/06/23 10:39:14;;;;;;;6.05;3.50;;;21.70;78.10;;;;;;10418255;28;20555;-57
2022/06/23 10:44:24;;;;;;;3.88;3.17;;;21.70;78.30;;;;;;10387892;28;20479;-56
2022/06/23 10:49:52;;;;;;;6.53;3.78;;;21.80;78.00;;;;;;10420588;28;20133;-57
2022/06/23 10:55:08;;;;;;;4.40;3.10;;;21.90;78.10;;;;;;10416986;28;20414;-57
2022/06/23 11:00:15;;;;;;;5.90;3.97;;;22.00;78.10;;;;;;10419254;28;20277;-57
2022/06/23 11:05:50;;;;;;;5.03;3.75;;;22.00;78.10;;;;;;10412021;28;20827;-61
2022/06/23 11:11:03;;;;;;;5.95;4.35;;;22.50;79.50;;;;;;10403322;28;20079;-59
2022/06/23 11:16:21;;;;;;;6.30;4.07;;;23.40;77.30;;;;;;10405543;28;20040;-60
2022/06/23 11:21:40;;;;;;;5.05;3.63;;;23.90;77.00;;;;;;10407044;28;20707;-60
2022/06/23 11:27:02;;;;;;;7.68;3.90;;;24.70;75.10;;;;;;10418765;28;20176;-60
2022/06/23 11:32:39;;;;;;;5.93;3.95;;;25.30;73.80;;;;;;10417187;28;20052;-61
2022/06/23 11:37:44;;;;;;;6.03;3.85;;;25.60;72.80;;;;;;10419794;28;20382;-60
2022/06/23 11:43:05;;;;;;;5.05;3.80;;;25.80;72.30;;;;;;10417285;28;20046;-60
2022/06/23 11:48:17;;;;;;;8.15;3.63;;;26.10;70.90;;;;;;10411292;28;20063;-60
2022/06/23 11:53:59;;;;;;;4.82;3.50;;;26.20;71.50;;;;;;10414959;28;20246;-59
2022/06/23 11:59:21;;;;;;;3.80;3.40;;;26.50;71.40;;;;;;10396911;28;20340;-61
2022/06/23 12:04:45;;;;;;;6.00;3.28;;;26.50;70.90;;;;;;10411483;28;20039;-65
2022/06/23 12:10:02;;;;;;;6.50;3.42;;;26.80;70.20;;;;;;10410755;28;20365;-60
2022/06/23 12:15:05;;;;;;;4.30;3.13;;;26.90;68.30;;;;;;10416119;28;20464;-60
2022/06/23 12:20:35;;;;;;;3.55;3.10;;;27.10;68.70;;;;;;10414835;28;20039;-60
2022/06/23 12:25:48;;;;;;;4.07;3.60;;;27.30;67.10;;;;;;10413692;28;20040;-62
2022/06/23 12:31:22;;;;;;;3.97;3.47;;;27.40;67.50;;;;;;10412874;28;20426;-60
2022/06/23 12:37:04;;;;;;;6.28;3.60;;;27.20;68.30;;;;;;10406223;28;20451;-60
2022/06/23 12:42:12;;;;;;;4.25;3.45;;;27.40;67.10;;;;;;10406292;28;20035;-60
2022/06/23 12:47:28;;;;;;;;;;;27.50;67.60;;;;;;10403312;28;20544;-61
2022/06/23 12:52:51;;;;;;;4.68;3.97;;;27.70;66.40;;;;;;10408673;28;20480;-61
2022/06/23 12:58:17;;;;;;;6.43;3.85;;;27.80;66.80;;;;;;10416713;28;20053;-61
2022/06/23 13:03:28;;;;;;;4.22;3.58;;;28.00;65.30;;;;;;10406313;28;20132;-59
2022/06/23 13:08:38;;;;;;;6.40;3.85;;;28.20;66.60;;;;;;10399052;28;20554;-60
2022/06/23 13:13:54;;;;;;;5.28;4.00;;;28.30;65.70;;;;;;10408195;28;20344;-61
2022/06/23 13:19:01;;;;;;;4.50;3.60;;;28.40;65.20;;;;;;10412884;28;20798;-60
2022/06/23 13:24:16;;;;;;;6.35;4.35;;;28.60;65.50;;;;;;10399253;28;20551;-59
2022/06/23 13:29:23;;;;;;;4.72;3.97;;;28.70;64.90;;;;;;10415073;28;20024;-59
2022/06/23 13:34:27;;;;;;;6.05;4.68;;;28.90;64.90;;;;;;10410164;28;20047;-60
2022/06/23 13:39:55;;;;;;;9.13;4.22;;;29.00;65.10;;;;;;10411727;28;20024;-59
2022/06/23 13:45:17;;;;;;;6.90;4.25;;;29.00;64.60;;;;;;10400654;28;20701;-60
2022/06/23 13:50:57;;;;;;;4.85;4.35;;;29.20;65.40;;;;;;10415421;28;20073;-60
2022/06/23 13:56:39;;;;;;;4.97;4.28;;;29.30;64.10;;;;;;10400127;28;20040;-59
2022/06/23 14:01:58;;;;;;;7.05;4.15;;;29.20;63.60;;;;;;10420355;28;20039;-60
2022/06/23 14:07:07;;;;;;;6.43;4.68;;;29.30;64.20;;;;;;10413846;28;20583;-60
2022/06/23 14:12:23;;;;;;;6.43;4.45;;;29.50;64.30;;;;;;10412337;28;20028;-59
2022/06/23 14:17:32;;;;;;;7.78;4.55;;;29.70;64.10;;;;;;10410229;28;20102;-61
2022/06/23 14:22:50;;;;;;;6.05;4.47;;;29.80;63.70;;;;;;10411495;28;20029;-59
2022/06/23 14:28:14;;;;;;;5.07;4.30;;;29.90;63.40;;;;;;10415074;28;20023;-59
2022/06/23 14:33:43;;;;;;;5.47;4.93;;;30.10;63.50;;;;;;10384884;28;20036;-59
2022/06/23 14:38:59;;;;;;;9.05;4.80;;;30.20;62.90;;;;;;10411663;28;20045;-61
2022/06/23 14:44:26;;;;;;;5.30;4.67;;;30.30;62.90;;;;;;10416404;28;20573;-61
2022/06/23 14:49:38;;;;;;;9.55;4.90;;;30.40;62.60;;;;;;10386687;28;20637;-61
2022/06/23 14:54:54;;;;;;;6.13;4.93;;;30.50;62.80;;;;;;10409051;28;20114;-60
2022/06/23 15:00:21;;;;;;;6.70;5.00;;;30.50;62.40;;;;;;10405491;28;20032;-62
2022/06/23 15:05:31;;;;;;;;;;;30.50;62.10;;;;;;10409203;28;20233;-61
2022/06/23 15:10:54;;;;;;;9.52;5.00;;;30.50;61.90;;;;;;10414225;28;19916;-61
2022/06/23 15:16:25;;;;;;;7.57;5.13;;;30.50;62.30;;;;;;10410660;28;20486;-60
2022/06/23 15:27:05;;;;;;;7.60;5.47;;;30.50;63.00;;;;;;10419115;28;20050;-60
2022/06/23 15:32:36;;;;;;;6.53;4.95;;;30.50;62.30;;;;;;10419212;28;20032;-60
2022/06/23 15:38:16;;;;;;;7.03;5.40;;;30.40;62.50;;;;;;10407885;28;20043;-62
2022/06/23 15:43:23;;;;;;;8.77;5.57;;;30.30;62.20;;;;;;10398322;28;20121;-61
2022/06/23 15:48:38;;;;;;;7.18;5.10;;;30.30;62.60;;;;;;10408772;28;20039;-61
2022/06/23 15:53:55;;;;;;;6.53;5.18;;;30.10;62.20;;;;;;10419911;28;20027;-61
2022/06/23 15:59:01;;;;;;;9.50;5.75;;;30.10;62.20;;;;;;10413472;28;20225;-61
2022/06/23 16:04:15;;;;;;;7.10;5.30;;;30.00;62.00;;;;;;10409661;28;20052;-62
2022/06/23 16:09:32;;;;;;;9.18;5.10;;;29.80;62.00;;;;;;10406151;28;20396;-61
2022/06/23 16:14:56;;;;;;;8.20;5.20;;;29.60;62.10;;;;;;10412948;28;20259;-60
2022/06/23 16:20:19;;;;;;;7.75;5.50;;;29.60;62.50;;;;;;10413290;28;20040;-61
2022/06/23 16:25:44;;;;;;;7.07;4.97;;;29.50;62.10;;;;;;10418084;28;20191;-61
2022/06/23 16:30:48;;;;;;;5.72;5.22;;;29.50;62.30;;;;;;10409019;28;20038;-61
2022/06/23 16:36:01;;;;;;;8.57;5.25;;;29.50;62.90;;;;;;10407963;28;20732;-62
2022/06/23 16:41:37;;;;;;;7.20;5.03;;;29.50;62.30;;;;;;10404915;28;21042;-61
2022/06/23 16:46:50;;;;;;;7.38;4.85;;;29.60;61.90;;;;;;10409793;28;20135;-61
2022/06/23 16:52:07;;;;;;;8.02;5.47;;;29.60;61.80;;;;;;10415038;28;20035;-62
2022/06/23 16:57:24;;;;;;;7.88;5.30;;;29.60;62.20;;;;;;10411797;28;20036;-64
2022/06/23 17:02:37;;;;;;;5.73;5.00;;;29.50;62.30;;;;;;10407781;28;20410;-65
2022/06/23 17:07:57;;;;;;;6.40;4.88;;;29.50;62.10;;;;;;10407731;28;20024;-61
2022/06/23 17:13:20;;;;;;;6.10;4.57;;;29.40;62.40;;;;;;10421396;28;20038;-61
2022/06/23 17:18:39;;;;;;;10.35;5.05;;;29.30;62.50;;;;;;10413005;28;20052;-61
2022/06/23 17:23:44;;;;;;;10.65;5.25;;;29.30;63.20;;;;;;10412194;28;20033;-63
2022/06/23 17:28:53;;;;;;;5.68;4.97;;;29.20;63.70;;;;;;10409811;28;20024;-61
2022/06/23 17:34:23;;;;;;;9.38;4.78;;;29.20;63.90;;;;;;10401957;28;20012;-60
2022/06/23 17:45:04;;;;;;;4.90;4.32;;;29.10;64.30;;;;;;10412386;28;20556;-61
2022/06/23 17:50:06;;;;;;;6.20;4.85;;;29.00;65.00;;;;;;10409424;28;20854;-61
2022/06/23 17:55:23;;;;;;;6.50;4.70;;;28.90;65.00;;;;;;10414543;28;20225;-62
2022/06/23 18:00:35;;;;;;;8.05;5.78;;;28.90;65.50;;;;;;10412208;28;20567;-61
2022/06/23 18:05:49;;;;;;;8.27;4.85;;;28.80;65.80;;;;;;10416717;28;20052;-62
2022/06/23 18:10:54;;;;;;;5.47;4.97;;;28.70;66.50;;;;;;10415555;28;20154;-60
2022/06/23 18:16:04;;;;;;;5.20;4.75;;;28.60;66.70;;;;;;10414928;28;20138;-61
2022/06/23 18:21:22;;;;;;;6.50;5.22;;;28.60;66.90;;;;;;10409375;28;20146;-61
2022/06/23 18:26:34;;;;;;;5.88;5.10;;;28.50;67.20;;;;;;10410584;28;20028;-62
2022/06/23 18:31:53;;;;;;;5.88;4.45;;;28.50;67.10;;;;;;10410508;28;20048;-61
2022/06/23 18:37:04;;;;;;;11.00;4.63;;;28.50;67.20;;;;;;10418811;28;20210;-63
2022/06/23 18:42:26;;;;;;;11.73;4.63;;;28.40;66.70;;;;;;10402865;28;20624;-61
2022/06/23 18:47:56;;;;;;;8.00;4.35;;;28.30;66.80;;;;;;10402128;28;20069;-61
2022/06/23 18:53:05;;;;;;;8.65;4.30;;;28.20;67.50;;;;;;10411466;28;20033;-61
2022/06/23 18:58:25;;;;;;;7.03;4.35;;;28.00;68.10;;;;;;10411839;28;20919;-62
2022/06/23 19:03:30;;;;;;;5.82;4.07;;;27.90;68.60;;;;;;10419321;28;20575;-62
2022/06/23 19:08:32;;;;;;;5.13;4.00;;;27.80;68.80;;;;;;10417595;28;20020;-62
2022/06/23 19:14:03;;;;;;;7.65;4.57;;;27.70;69.40;;;;;;10417404;28;20040;-61
2022/06/23 19:19:18;;;;;;;12.82;4.78;;;27.50;70.00;;;;;;10420009;28;20048;-62
2022/06/23 19:24:36;;;;;;;7.40;4.88;;;27.40;70.40;;;;;;10430468;28;20055;-62
2022/06/23 19:29:56;;;;;;;8.77;4.47;;;27.20;71.30;;;;;;10418728;28;20028;-63
2022/06/23 19:35:01;;;;;;;9.65;4.75;;;27.10;71.60;;;;;;10415946;28;20028;-68
2022/06/23 19:40:04;;;;;;;16.67;5.07;;;26.90;72.20;;;;;;10430086;28;20049;-63
2022/06/23 19:45:26;;;;;;;8.93;4.97;;;26.80;72.70;;;;;;10434863;28;20247;-63
2022/06/23 19:50:35;;;;;;;10.93;5.32;;;26.70;73.60;;;;;;10416741;28;20369;-63
2022/06/23 19:55:39;;;;;;;8.35;5.18;;;26.60;74.40;;;;;;10424347;28;20859;-63
2022/06/23 20:01:00;;;;;;;7.13;4.70;;;26.50;73.80;;;;;;10420261;28;20040;-60
2022/06/23 20:06:12;;;;;;;10.57;5.63;;;26.40;74.50;;;;;;10412006;28;20457;-62
2022/06/23 20:11:36;;;;;;;10.25;4.88;;;26.30;75.40;;;;;;10415340;28;20067;-63
2022/06/23 20:16:49;;;;;;;8.93;5.30;;;26.20;76.30;;;;;;10451855;28;20043;-62
2022/06/23 20:22:31;;;;;;;9.18;6.38;;;26.10;77.10;;;;;;10513995;28;20020;-63
2022/06/23 20:27:49;;;;;;;9.40;5.72;;;25.90;77.30;;;;;;10497114;28;20043;-61
2022/06/23 20:32:55;;;;;;;11.85;6.32;;;25.60;77.20;;;;;;10511441;28;20032;-62
2022/06/23 20:38:20;;;;;;;10.43;6.32;;;25.60;77.20;;;;;;10506153;28;20534;-59
2022/06/23 20:43:35;;;;;;;8.85;5.35;;;25.60;77.20;;;;;;10505628;28;20135;-62
2022/06/23 20:48:51;;;;;;;9.57;5.63;;;25.70;76.80;;;;;;10505300;28;20020;-59
2022/06/23 20:54:02;;;;;;;7.70;5.18;;;25.90;76.60;;;;;;10508076;28;20028;-60
2022/06/23 20:59:12;;;;;;;8.40;5.13;;;25.90;76.40;;;;;;10507439;28;20027;-58
2022/06/23 21:04:17;;;;;;;8.57;5.45;;;25.90;75.80;;;;;;10508195;28;20082;-60
2022/06/23 21:09:49;;;;;;;10.52;5.68;;;26.00;75.80;;;;;;10501148;28;20073;-57
2022/06/23 21:15:03;;;;;;;7.68;5.05;;;26.00;76.00;;;;;;10503333;28;20222;-58
2022/06/23 21:20:04;;;;;;;6.90;4.95;;;26.00;75.70;;;;;;10499770;28;20507;-57
2022/06/23 21:25:33;;;;;;;9.75;5.00;;;26.00;75.50;;;;;;10509106;28;20041;-59
2022/06/23 21:30:49;;;;;;;8.57;4.75;;;26.00;75.70;;;;;;10505973;28;20077;-58
2022/06/23 21:35:56;;;;;;;7.65;5.13;;;26.00;75.50;;;;;;10500537;28;20067;-59
2022/06/23 21:41:07;;;;;;;6.65;4.82;;;26.00;75.50;;;;;;10509748;28;20029;-57
2022/06/23 21:46:37;;;;;;;5.93;5.10;;;26.00;75.50;;;;;;10510316;28;20059;-57
2022/06/23 21:51:46;;;;;;;5.03;4.15;;;25.90;75.50;;;;;;10518482;27;20032;-61
2022/06/23 21:57:07;;;;;;;6.57;4.20;;;25.90;75.30;;;;;;10500237;28;20826;-56
2022/06/23 22:02:44;;;;;;;6.20;4.88;;;25.90;75.40;;;;;;10507610;28;20032;-57
2022/06/23 22:08:25;;;;;;;5.10;4.20;;;25.90;75.40;;;;;;10480682;28;20424;-58
2022/06/23 22:13:27;;;;;;;6.47;5.03;;;25.80;75.40;;;;;;10508280;28;20024;-57
2022/06/23 22:18:42;;;;;;;4.25;3.85;;;25.80;75.30;;;;;;10497398;28;20090;-59
2022/06/23 22:29:17;;;;;;;7.00;4.35;;;25.70;75.30;;;;;;10500313;28;20028;-58
2022/06/23 22:34:36;;;;;;;5.65;4.00;;;25.70;75.50;;;;;;10507767;28;20446;-59
2022/06/23 22:39:43;;;;;;;5.65;4.30;;;25.70;75.50;;;;;;10510152;28;20024;-60
2022/06/23 22:45:10;;;;;;;6.57;4.20;;;25.70;75.50;;;;;;10511124;28;20120;-60
2022/06/23 22:50:10;;;;;;;5.45;4.10;;;25.60;75.50;;;;;;10512681;28;20633;-59
2022/06/23 22:55:12;;;;;;;4.50;4.00;;;25.60;75.40;;;;;;10510563;28;20032;-58
2022/06/23 23:00:18;;;;;;;5.18;3.80;;;25.60;75.40;;;;;;10513684;28;20028;-58
2022/06/23 23:05:23;;;;;;;5.15;3.90;;;25.60;75.50;;;;;;10512141;28;20036;-60
2022/06/23 23:10:48;;;;;;;7.25;4.10;;;25.50;75.50;;;;;;10511982;28;20024;-59
2022/06/23 23:15:51;;;;;;;4.93;3.80;;;25.50;75.70;;;;;;10513688;28;20146;-58
2022/06/23 23:20:54;;;;;;;5.57;4.13;;;25.40;75.50;;;;;;10504645;28;20065;-60
2022/06/23 23:25:55;;;;;;;4.55;4.15;;;25.40;75.50;;;;;;10507551;28;20034;-60
2022/06/23 23:31:01;;;;;;;7.03;4.20;;;25.40;75.60;;;;;;10505872;28;20028;-59
2022/06/23 23:36:02;;;;;;;5.10;4.15;;;25.30;75.60;;;;;;10508846;28;20100;-58
2022/06/23 23:41:03;;;;;;;5.03;3.63;;;25.30;75.70;;;;;;10512971;28;20154;-58
2022/06/23 23:46:04;;;;;;;5.53;4.20;;;25.30;75.80;;;;;;10508919;28;20081;-59
2022/06/23 23:51:05;;;;;;;5.32;3.92;;;25.30;75.90;;;;;;10510912;28;20490;-59
2022/06/23 23:56:06;;;;;;;5.18;3.78;;;25.20;75.90;;;;;;10504959;28;20021;-57
